Ralph, South Dakota
Current Conditions -  °F | °C
As of 1:53 PM on Saturday 22 Nov 2014 (Local Time) from KHEI Reporting Station
Overcast Overcast  
Wind Chill: 35°   Ceiling: 6500
Heat Index: 41°   Visibility: 10mi
Dew Point: 30°   Wind: 9mph
Humidity: 65%   Direction: 270°W
Pressure: 29.38"   Gusts: NA
Location:  45.77°N, 103.07°W
Report Text: KHEI 222053Z AUTO 27008KT 10SM BKN065 OVC090 05/M01 A2938 RMK AO2 SLP967 T00501011 55006
Loading
Personal Weather Stations






























Interactive Weather Map New forecast layout! Learn more

10-Day Weather Forecast

Advertisements
Track Severe Weather on mobile